Time,TemperatureF,DewpointF,PressureIn,WindDirection,WindDirectionDegrees,WindSpeedMPH,WindSpeedGustMPH,Humidity,HourlyPrecipIn,Conditions,Clouds,dailyrainin,SolarRadiationWatts/m^2,SoftwareType,DateUTC
2013-01-24 00:12:00,40.0,24.0,-100.00,NNE,12,7.0,16.0,52,0.00,,,0.00,1.000000,,2013-01-24 06:12:00,
2013-01-24 00:22:00,40.0,24.0,-100.00,NNE,12,7.0,16.0,52,0.00,,,0.00,1.000000,,2013-01-24 06:22:00,
2013-01-24 00:32:00,40.0,24.0,-100.00,NNE,12,7.0,16.0,52,0.00,,,0.00,1.000000,,2013-01-24 06:32:00,
2013-01-24 00:42:00,40.0,24.0,-100.00,NNE,12,7.0,16.0,52,0.00,,,0.00,1.000000,,2013-01-24 06:42:00,
2013-01-24 00:52:00,40.0,24.0,-100.00,NNE,12,7.0,16.0,52,0.00,,,0.00,1.000000,,2013-01-24 06:52:00,
2013-01-24 01:23:00,37.0,22.0,-100.00,North,5,5.0,14.0,55,0.00,,,0.00,1.000000,,2013-01-24 07:23:00,
2013-01-24 01:33:00,37.0,22.0,-100.00,North,5,5.0,14.0,55,0.00,,,0.00,1.000000,,2013-01-24 07:33:00,
2013-01-24 01:42:00,37.0,22.0,-100.00,North,5,5.0,14.0,55,0.00,,,0.00,1.000000,,2013-01-24 07:42:00,
2013-01-24 01:52:00,37.0,22.0,-100.00,North,5,5.0,14.0,55,0.00,,,0.00,1.000000,,2013-01-24 07:52:00,
2013-01-24 02:12:00,36.0,21.0,-100.00,North,11,7.0,13.0,53,0.00,,,0.00,1.000000,,2013-01-24 08:12:00,
2013-01-24 02:23:00,36.0,21.0,-100.00,North,11,7.0,13.0,53,0.00,,,0.00,1.000000,,2013-01-24 08:23:00,
2013-01-24 02:33:00,36.0,21.0,-100.00,North,11,7.0,13.0,53,0.00,,,0.00,1.000000,,2013-01-24 08:33:00,
2013-01-24 02:42:00,36.0,21.0,-100.00,North,11,7.0,13.0,53,0.00,,,0.00,1.000000,,2013-01-24 08:42:00,
2013-01-24 02:52:00,36.0,21.0,-100.00,North,11,7.0,13.0,53,0.00,,,0.00,1.000000,,2013-01-24 08:52:00,
2013-01-24 03:13:00,34.0,18.0,-100.00,NNE,18,10.0,17.0,51,0.00,,,0.00,1.000000,,2013-01-24 09:13:00,
2013-01-24 03:23:00,34.0,18.0,-100.00,NNE,18,10.0,17.0,51,0.00,,,0.00,1.000000,,2013-01-24 09:23:00,
2013-01-24 03:33:00,34.0,18.0,-100.00,NNE,18,10.0,17.0,51,0.00,,,0.00,1.000000,,2013-01-24 09:33:00,
2013-01-24 03:43:00,34.0,18.0,-100.00,NNE,18,10.0,17.0,51,0.00,,,0.00,1.000000,,2013-01-24 09:43:00,
2013-01-24 03:52:00,34.0,18.0,-100.00,NNE,18,10.0,17.0,51,0.00,,,0.00,1.000000,,2013-01-24 09:52:00,
2013-01-24 04:12:00,32.0,15.0,-100.00,NNE,17,7.0,16.0,50,0.00,,,0.00,1.000000,,2013-01-24 10:12:00,
2013-01-24 04:23:00,32.0,15.0,-100.00,NNE,17,7.0,16.0,50,0.00,,,0.00,1.000000,,2013-01-24 10:23:00,
2013-01-24 04:33:00,32.0,15.0,-100.00,NNE,17,7.0,16.0,50,0.00,,,0.00,1.000000,,2013-01-24 10:33:00,
2013-01-24 04:43:00,32.0,15.0,-100.00,NNE,17,7.0,16.0,50,0.00,,,0.00,1.000000,,2013-01-24 10:43:00,
2013-01-24 04:52:00,32.0,15.0,-100.00,NNE,17,7.0,16.0,50,0.00,,,0.00,1.000000,,2013-01-24 10:52:00,
2013-01-24 04:53:00,31.0,13.0,-100.00,NNE,26,8.0,16.0,47,0.00,,,0.00,1.000000,,2013-01-24 10:53:00,
2013-01-24 05:23:00,31.0,13.0,-100.00,NNE,26,8.0,16.0,47,0.00,,,0.00,1.000000,,2013-01-24 11:23:00,
2013-01-24 05:33:00,31.0,13.0,-100.00,NNE,26,8.0,16.0,47,0.00,,,0.00,1.000000,,2013-01-24 11:33:00,
2013-01-24 05:43:00,31.0,13.0,-100.00,NNE,26,8.0,16.0,47,0.00,,,0.00,1.000000,,2013-01-24 11:43:00,
2013-01-24 05:53:00,29.0,11.0,-100.00,NNE,28,8.0,19.0,47,0.00,,,0.00,1.000000,,2013-01-24 11:53:00,
2013-01-24 06:12:00,29.0,11.0,-100.00,NNE,28,8.0,19.0,47,0.00,,,0.00,1.000000,,2013-01-24 12:12:00,
2013-01-24 06:23:00,29.0,11.0,-100.00,NNE,28,8.0,19.0,47,0.00,,,0.00,1.000000,,2013-01-24 12:23:00,
2013-01-24 06:33:00,29.0,11.0,-100.00,NNE,28,8.0,19.0,47,0.00,,,0.00,1.000000,,2013-01-24 12:33:00,
2013-01-24 06:43:00,29.0,11.0,-100.00,NNE,28,8.0,19.0,47,0.00,,,0.00,1.000000,,2013-01-24 12:43:00,
2013-01-24 07:13:00,27.0,11.0,-100.00,NE,37,9.0,16.0,51,0.00,,,0.00,1.000000,,2013-01-24 13:13:00,
2013-01-24 07:23:00,27.0,11.0,-100.00,NE,37,9.0,16.0,51,0.00,,,0.00,1.000000,,2013-01-24 13:23:00,
2013-01-24 07:33:00,27.0,11.0,-100.00,NE,37,9.0,16.0,51,0.00,,,0.00,1.000000,,2013-01-24 13:33:00,
2013-01-24 07:43:00,27.0,11.0,-100.00,NE,37,9.0,16.0,51,0.00,,,0.00,1.000000,,2013-01-24 13:43:00,
2013-01-24 07:52:00,27.0,11.0,-100.00,NE,37,9.0,16.0,51,0.00,,,0.00,1.000000,,2013-01-24 13:52:00,
2013-01-24 07:53:00,26.0,10.0,-100.00,NE,36,9.0,15.0,51,0.00,,,0.00,24.000000,,2013-01-24 13:53:00,
2013-01-24 08:12:00,26.0,10.0,-100.00,NE,36,9.0,15.0,51,0.00,,,0.00,24.000000,,2013-01-24 14:12:00,
2013-01-24 08:23:00,26.0,10.0,-100.00,NE,36,9.0,15.0,51,0.00,,,0.00,24.000000,,2013-01-24 14:23:00,
2013-01-24 08:33:00,26.0,10.0,-100.00,NE,36,9.0,15.0,51,0.00,,,0.00,24.000000,,2013-01-24 14:33:00,
2013-01-24 08:43:00,26.0,10.0,-100.00,NE,36,9.0,15.0,51,0.00,,,0.00,24.000000,,2013-01-24 14:43:00,
2013-01-24 09:23:00,27.0,12.0,-100.00,ENE,57,7.0,15.0,52,0.00,,,0.00,182.000000,,2013-01-24 15:23:00,
2013-01-24 09:33:00,27.0,12.0,-100.00,ENE,57,7.0,15.0,52,0.00,,,0.00,182.000000,,2013-01-24 15:33:00,
2013-01-24 09:43:00,27.0,12.0,-100.00,ENE,57,7.0,15.0,52,0.00,,,0.00,182.000000,,2013-01-24 15:43:00,
2013-01-24 09:52:00,27.0,12.0,-100.00,ENE,57,7.0,15.0,52,0.00,,,0.00,182.000000,,2013-01-24 15:52:00,
2013-01-24 10:12:00,27.0,8.0,-100.00,ENE,57,8.0,16.0,43,0.00,,,0.00,357.000000,,2013-01-24 16:12:00,
2013-01-24 10:23:00,27.0,8.0,-100.00,ENE,57,8.0,16.0,43,0.00,,,0.00,357.000000,,2013-01-24 16:23:00,
2013-01-24 10:33:00,27.0,8.0,-100.00,ENE,57,8.0,16.0,43,0.00,,,0.00,357.000000,,2013-01-24 16:33:00,
2013-01-24 10:42:00,27.0,8.0,-100.00,ENE,57,8.0,16.0,43,0.00,,,0.00,357.000000,,2013-01-24 16:42:00,
2013-01-24 11:12:00,29.0,8.0,-100.00,NE,45,8.0,15.0,40,0.00,,,0.00,444.000000,,2013-01-24 17:12:00,
2013-01-24 11:22:00,29.0,8.0,-100.00,NE,45,8.0,15.0,40,0.00,,,0.00,444.000000,,2013-01-24 17:22:00,
2013-01-24 11:32:00,29.0,8.0,-100.00,NE,45,8.0,15.0,40,0.00,,,0.00,444.000000,,2013-01-24 17:32:00,
2013-01-24 11:42:00,29.0,8.0,-100.00,NE,45,8.0,15.0,40,0.00,,,0.00,444.000000,,2013-01-24 17:42:00,
2013-01-24 11:52:00,29.0,8.0,-100.00,NE,45,8.0,15.0,40,0.00,,,0.00,444.000000,,2013-01-24 17:52:00,
2013-01-24 12:22:00,29.0,8.0,-100.00,East,80,9.0,16.0,40,0.00,,,0.00,584.000000,,2013-01-24 18:22:00,
2013-01-24 12:33:00,29.0,8.0,-100.00,East,80,9.0,16.0,40,0.00,,,0.00,584.000000,,2013-01-24 18:33:00,
2013-01-24 12:42:00,29.0,8.0,-100.00,East,80,9.0,16.0,40,0.00,,,0.00,584.000000,,2013-01-24 18:42:00,
2013-01-24 12:52:00,29.0,8.0,-100.00,East,80,9.0,16.0,40,0.00,,,0.00,584.000000,,2013-01-24 18:52:00,
2013-01-24 13:12:00,31.0,10.0,-100.00,ENE,75,9.0,15.0,40,0.00,,,0.00,675.000000,,2013-01-24 19:12:00,
2013-01-24 13:22:00,31.0,10.0,-100.00,ENE,75,9.0,15.0,40,0.00,,,0.00,675.000000,,2013-01-24 19:22:00,
2013-01-24 13:33:00,31.0,10.0,-100.00,ENE,75,9.0,15.0,40,0.00,,,0.00,675.000000,,2013-01-24 19:33:00,
2013-01-24 13:42:00,31.0,10.0,-100.00,ENE,75,9.0,15.0,40,0.00,,,0.00,675.000000,,2013-01-24 19:42:00,
2013-01-24 13:52:00,31.0,10.0,-100.00,ENE,75,9.0,15.0,40,0.00,,,0.00,675.000000,,2013-01-24 19:52:00,
2013-01-24 14:22:00,31.0,9.0,-100.00,East,90,9.0,15.0,39,0.00,,,0.00,485.000000,,2013-01-24 20:22:00,
2013-01-24 14:32:00,31.0,9.0,-100.00,East,90,9.0,15.0,39,0.00,,,0.00,485.000000,,2013-01-24 20:32:00,
2013-01-24 14:42:00,31.0,9.0,-100.00,East,90,9.0,15.0,39,0.00,,,0.00,485.000000,,2013-01-24 20:42:00,
2013-01-24 14:52:00,31.0,9.0,-100.00,East,90,9.0,15.0,39,0.00,,,0.00,485.000000,,2013-01-24 20:52:00,
2013-01-24 15:12:00,31.0,8.0,-100.00,East,95,10.0,18.0,38,0.00,,,0.00,340.000000,,2013-01-24 21:12:00,
2013-01-24 15:22:00,31.0,8.0,-100.00,East,95,10.0,18.0,38,0.00,,,0.00,340.000000,,2013-01-24 21:22:00,
2013-01-24 15:33:00,31.0,8.0,-100.00,East,95,10.0,18.0,38,0.00,,,0.00,340.000000,,2013-01-24 21:33:00,
2013-01-24 15:43:00,31.0,8.0,-100.00,East,95,10.0,18.0,38,0.00,,,0.00,340.000000,,2013-01-24 21:43:00,
2013-01-24 15:52:00,31.0,8.0,-100.00,East,95,10.0,18.0,38,0.00,,,0.00,340.000000,,2013-01-24 21:52:00,
2013-01-24 16:12:00,30.0,8.0,-100.00,East,84,9.0,15.0,39,0.00,,,0.00,118.000000,,2013-01-24 22:12:00,
2013-01-24 16:22:00,30.0,8.0,-100.00,East,84,9.0,15.0,39,0.00,,,0.00,118.000000,,2013-01-24 22:22:00,
2013-01-24 16:32:00,30.0,8.0,-100.00,East,84,9.0,15.0,39,0.00,,,0.00,118.000000,,2013-01-24 22:32:00,
2013-01-24 16:42:00,30.0,8.0,-100.00,East,84,9.0,15.0,39,0.00,,,0.00,118.000000,,2013-01-24 22:42:00,
2013-01-24 16:52:00,30.0,8.0,-100.00,East,84,9.0,15.0,39,0.00,,,0.00,118.000000,,2013-01-24 22:52:00,
2013-01-24 17:12:00,29.0,7.0,-100.00,East,100,8.0,15.0,38,0.00,,,0.00,37.000000,,2013-01-24 23:12:00,
2013-01-24 17:22:00,29.0,7.0,-100.00,East,100,8.0,15.0,38,0.00,,,0.00,37.000000,,2013-01-24 23:22:00,
2013-01-24 17:32:00,29.0,7.0,-100.00,East,100,8.0,15.0,38,0.00,,,0.00,37.000000,,2013-01-24 23:32:00,
2013-01-24 17:42:00,29.0,7.0,-100.00,East,100,8.0,15.0,38,0.00,,,0.00,37.000000,,2013-01-24 23:42:00,
2013-01-24 17:52:00,29.0,7.0,-100.00,East,100,8.0,15.0,38,0.00,,,0.00,37.000000,,2013-01-24 23:52:00,
2013-01-24 18:22:00,29.0,10.0,-100.00,East,90,9.0,15.0,44,0.00,,,0.00,4.000000,,2013-01-25 00:22:00,
2013-01-24 18:32:00,29.0,10.0,-100.00,East,90,9.0,15.0,44,0.00,,,0.00,4.000000,,2013-01-25 00:32:00,
2013-01-24 18:42:00,29.0,10.0,-100.00,East,90,9.0,15.0,44,0.00,,,0.00,4.000000,,2013-01-25 00:42:00,
2013-01-24 18:52:00,29.0,10.0,-100.00,East,90,9.0,15.0,44,0.00,,,0.00,4.000000,,2013-01-25 00:52:00,
2013-01-24 19:22:00,30.0,13.0,-100.00,East,86,7.0,13.0,48,0.00,,,0.00,1.000000,,2013-01-25 01:22:00,
2013-01-24 19:32:00,30.0,13.0,-100.00,East,86,7.0,13.0,48,0.00,,,0.00,1.000000,,2013-01-25 01:32:00,
2013-01-24 19:42:00,30.0,13.0,-100.00,East,86,7.0,13.0,48,0.00,,,0.00,1.000000,,2013-01-25 01:42:00,
2013-01-24 19:52:00,30.0,13.0,-100.00,East,86,7.0,13.0,48,0.00,,,0.00,1.000000,,2013-01-25 01:52:00,
2013-01-24 20:22:00,30.0,14.0,-100.00,East,92,8.0,12.0,50,0.00,,,0.00,1.000000,,2013-01-25 02:22:00,
2013-01-24 20:32:00,30.0,14.0,-100.00,East,92,8.0,12.0,50,0.00,,,0.00,1.000000,,2013-01-25 02:32:00,
2013-01-24 20:42:00,30.0,14.0,-100.00,East,92,8.0,12.0,50,0.00,,,0.00,1.000000,,2013-01-25 02:42:00,
2013-01-24 20:52:00,30.0,14.0,-100.00,East,92,8.0,12.0,50,0.00,,,0.00,1.000000,,2013-01-25 02:52:00,
2013-01-24 21:12:00,30.0,14.0,-100.00,East,96,7.0,13.0,51,0.00,,,0.00,1.000000,,2013-01-25 03:12:00,
2013-01-24 21:22:00,30.0,14.0,-100.00,East,96,7.0,13.0,51,0.00,,,0.00,1.000000,,2013-01-25 03:22:00,
2013-01-24 21:33:00,30.0,14.0,-100.00,East,96,7.0,13.0,51,0.00,,,0.00,1.000000,,2013-01-25 03:33:00,
2013-01-24 21:42:00,30.0,14.0,-100.00,East,96,7.0,13.0,51,0.00,,,0.00,1.000000,,2013-01-25 03:42:00,
2013-01-24 21:52:00,30.0,14.0,-100.00,East,96,7.0,13.0,51,0.00,,,0.00,1.000000,,2013-01-25 03:52:00,
2013-01-24 22:12:00,31.0,15.0,-100.00,East,82,5.0,11.0,52,0.00,,,0.00,1.000000,,2013-01-25 04:12:00,
2013-01-24 22:22:00,31.0,15.0,-100.00,East,82,5.0,11.0,52,0.00,,,0.00,1.000000,,2013-01-25 04:22:00,
2013-01-24 22:32:00,31.0,15.0,-100.00,East,82,5.0,11.0,52,0.00,,,0.00,1.000000,,2013-01-25 04:32:00,
2013-01-24 22:42:00,31.0,15.0,-100.00,East,82,5.0,11.0,52,0.00,,,0.00,1.000000,,2013-01-25 04:42:00,
2013-01-24 22:51:00,31.0,15.0,-100.00,East,82,5.0,11.0,52,0.00,,,0.00,1.000000,,2013-01-25 04:51:00,
2013-01-24 23:22:00,31.0,15.0,-100.00,East,95,5.0,10.0,52,0.00,,,0.00,1.000000,,2013-01-25 05:22:00,
2013-01-24 23:32:00,31.0,15.0,-100.00,East,95,5.0,10.0,52,0.00,,,0.00,1.000000,,2013-01-25 05:32:00,
2013-01-24 23:43:00,31.0,15.0,-100.00,East,95,5.0,10.0,52,0.00,,,0.00,1.000000,,2013-01-25 05:43:00,
2013-01-24 23:52:00,31.0,15.0,-100.00,East,95,5.0,10.0,52,0.00,,,0.00,1.000000,,2013-01-25 05:52:00,